South Hill, VA (23970)

1:49 AM EDT on September 03, 2015 (GMT -0400)
Greenwood Farms | | Change Station
CLOSE
Current Station
Personal Weather Station
Location: South Hill, VA
Elevation: 380 ft
Nearby Weather Stations

Elev 380 ft 36.74 °N, 78.13 °W | Updated 12 seconds ago

Partly Cloudy
Partly Cloudy
69.3 °F
Feels Like 69.3 °F
N
0.0
Wind Variable Wind from WNW
Gusts 0.0 mph

Today
High -- | Low -- °F
--% Chance of Precip.
Yesterday
High -- | Low -- °F
Precip. -- in
6:45 AM 7:38 PM
Waning Gibbous, 73% visible
Pressure 30.04 in
Visibility 2.0 miles
Clouds Mostly Cloudy 100 ft
Dew Point 57 °F
Humidity 64%
Rainfall 0.00 in
Snow Depth Not available.
UV 0 out of 12
Pollen 8.50 out of 12
Air Quality Not available.
Flu Activity Not available.
METAR KAVC 030536Z AUTO 00000KT 2SM BKN001 19/19 A3004 RMK AO2 T01900190
Pressure 30.04 in
Visibility 2.0 miles
Clouds Mostly Cloudy 100 ft
Dew Point 57 °F
Humidity 64%
Rainfall 0.00 in
Snow Depth Not available.
UV 0 out of 12
Pollen 8.50 out of 12
Air Quality Not available.
Flu Activity Not available.
METAR KAVC 030536Z AUTO 00000KT 2SM BKN001 19/19 A3004 RMK AO2 T01900190

10-Day Weather Forecast

×

Almanac

Astronomy

Sep. 03, 2015 Rise Set
Actual Time
Civil Twilight
Nautical Twilight
Astronomical Twilight
Moon
Length of Visible Light
Length of Day
Tomorrow will be .
, % of the Moon is Illuminated

Today's Extremes

State Highs State Lows

Community

WunderPhotos

Upload Photos

1,851,914 photos uploaded!

WunderBlogs® & News

Nearby

Air Quality

  Air Quality AQ Index Pollutant
Not available.

Snow Depth

Station Depth Elevation

Earthquake Activity

City Distance Mag. Time & Date
Minimum magnitude displayed is 2.5.

Coastal Water Temperatures

Place Temperature

Stations

Nearby Weather Stations

Station Location Temp. Windchill Dew Point Humidity Wind Precip. Elev Updated Type